createdAt,value
2022-08-17T00:00:42.579Z,15.52
2022-08-17T00:03:39.159Z,14.20
2022-08-17T00:06:28.565Z,12.50
2022-08-17T00:09:18.335Z,14.48
2022-08-17T00:12:41.879Z,14.52
2022-08-17T00:15:13.779Z,14.23
2022-08-17T00:17:59.249Z,14.45
2022-08-17T00:20:45.261Z,14.05
2022-08-17T00:23:31.472Z,13.30
2022-08-17T00:26:45.238Z,13.68
2022-08-17T00:29:25.404Z,14.45
2022-08-17T00:33:14.209Z,13.88
2022-08-17T00:35:23.716Z,13.70
2022-08-17T00:38:12.127Z,13.10
2022-08-17T00:41:02.016Z,13.00
2022-08-17T00:43:54.776Z,12.90
2022-08-17T00:46:42.850Z,13.20
2022-08-17T00:49:31.805Z,14.05
2022-08-17T00:52:21.708Z,13.93
2022-08-17T00:55:09.189Z,14.13
2022-08-17T00:57:58.724Z,13.07
2022-08-17T01:00:46.179Z,12.57
2022-08-17T01:03:33.021Z,12.93
2022-08-17T01:06:21.626Z,13.27
2022-08-17T01:09:09.002Z,16.13
2022-08-17T01:11:55.668Z,16.33
2022-08-17T01:14:41.639Z,15.25
2022-08-17T01:17:28.588Z,15.68
2022-08-17T01:20:14.362Z,16.27
2022-08-17T01:23:01.489Z,15.60
2022-08-17T01:25:50.959Z,15.15
2022-08-17T01:28:54.136Z,16.13
2022-08-17T01:31:45.618Z,13.95
2022-08-17T01:37:34.581Z,14.38
2022-08-17T01:43:23.557Z,15.50
2022-08-17T01:46:09.678Z,16.15
2022-08-17T01:48:57.711Z,15.10
2022-08-17T01:51:44.037Z,16.50
2022-08-17T01:54:30.029Z,15.15
2022-08-17T01:57:16.717Z,14.70
2022-08-17T02:00:06.583Z,15.15
2022-08-17T02:02:57.218Z,16.40
2022-08-17T02:05:42.994Z,16.50
2022-08-17T02:08:37.229Z,15.30
2022-08-17T02:11:25.644Z,15.23
2022-08-17T02:14:12.114Z,15.57
2022-08-17T02:16:58.659Z,15.70
2022-08-17T02:19:44.749Z,15.18
2022-08-17T02:22:31.232Z,15.88
2022-08-17T02:25:20.659Z,16.48
2022-08-17T02:28:10.917Z,18.58
2022-08-17T02:31:01.256Z,19.20
2022-08-17T02:34:00.324Z,16.45
2022-08-17T02:36:49.453Z,14.93
2022-08-17T02:39:35.318Z,14.32
2022-08-17T02:42:27.737Z,15.05
2022-08-17T02:45:17.624Z,14.48
2022-08-17T02:48:04.645Z,17.75
2022-08-17T02:50:50.544Z,17.70
2022-08-17T02:53:37.124Z,16.40
2022-08-17T02:56:22.743Z,14.95
2022-08-17T02:59:09.205Z,16.40
2022-08-17T03:01:55.214Z,16.67
2022-08-17T03:04:41.505Z,15.38
2022-08-17T03:07:27.472Z,16.45
2022-08-17T03:10:14.862Z,15.80
2022-08-17T03:13:01.951Z,14.52
2022-08-17T03:15:48.609Z,15.35
2022-08-17T03:18:35.042Z,16.80
2022-08-17T03:21:21.877Z,16.83
2022-08-17T03:24:09.209Z,18.23
2022-08-17T03:26:56.069Z,18.67
2022-08-17T03:29:42.303Z,20.77
2022-08-17T03:32:29.180Z,19.65
2022-08-17T03:35:18.005Z,22.05
2022-08-17T03:38:05.250Z,19.90
2022-08-17T03:40:56.238Z,21.17
2022-08-17T03:43:45.040Z,20.95
2022-08-17T03:46:49.993Z,20.60
2022-08-17T03:50:05.890Z,21.25
2022-08-17T03:53:10.721Z,21.75
2022-08-17T03:56:24.978Z,19.70
2022-08-17T03:59:21.113Z,21.58
2022-08-17T04:02:11.992Z,19.13
2022-08-17T04:04:58.992Z,20.90
2022-08-17T04:07:46.100Z,19.80
2022-08-17T04:10:33.285Z,16.67
2022-08-17T04:13:25.565Z,19.33
2022-08-17T04:16:11.503Z,19.85
2022-08-17T04:18:57.872Z,21.00
2022-08-17T04:21:43.737Z,19.00
2022-08-17T04:24:30.162Z,20.15
2022-08-17T04:27:16.082Z,18.40
2022-08-17T04:30:06.971Z,20.88
2022-08-17T04:33:05.725Z,19.10
2022-08-17T04:35:55.826Z,20.45
2022-08-17T04:38:43.095Z,23.73
2022-08-17T04:41:49.126Z,20.92
2022-08-17T04:44:37.545Z,19.77
2022-08-17T04:47:24.948Z,21.20
2022-08-17T04:50:11.738Z,20.30
2022-08-17T04:52:58.367Z,20.60
2022-08-17T04:55:44.821Z,20.75
2022-08-17T04:58:31.536Z,20.45
2022-08-17T05:01:23.337Z,19.83
2022-08-17T05:04:21.350Z,19.38
2022-08-17T05:07:23.977Z,17.95
2022-08-17T05:10:11.674Z,19.20
2022-08-17T05:12:59.711Z,17.52
2022-08-17T05:15:50.070Z,18.55
2022-08-17T05:18:38.896Z,18.05
2022-08-17T05:21:26.981Z,18.07
2022-08-17T05:24:38.713Z,19.60
2022-08-17T05:27:19.788Z,20.67
2022-08-17T05:30:06.611Z,20.70
2022-08-17T05:33:08.939Z,19.30
2022-08-17T05:35:57.843Z,19.05
2022-08-17T05:38:44.749Z,19.00
2022-08-17T05:41:31.742Z,18.17
2022-08-17T05:44:18.671Z,18.23
2022-08-17T05:47:05.975Z,18.98
2022-08-17T05:49:56.884Z,18.67
2022-08-17T05:52:53.910Z,17.40
2022-08-17T05:56:01.762Z,16.95
2022-08-17T05:59:03.830Z,15.38
2022-08-17T06:02:15.981Z,16.35
2022-08-17T06:05:25.023Z,15.45
2022-08-17T06:08:42.631Z,16.47
2022-08-17T06:11:39.811Z,15.73
2022-08-17T06:14:42.029Z,14.60
2022-08-17T06:17:29.904Z,15.13
2022-08-17T06:20:17.630Z,14.00
2022-08-17T06:23:05.965Z,14.48
2022-08-17T06:26:03.895Z,14.70
2022-08-17T06:28:57.452Z,13.25
2022-08-17T06:31:44.635Z,13.30
2022-08-17T06:34:33.883Z,12.75
2022-08-17T06:37:25.333Z,13.82
2022-08-17T06:40:26.750Z,13.07
2022-08-17T06:43:48.045Z,12.05
2022-08-17T06:46:42.000Z,12.52
2022-08-17T06:49:55.529Z,12.45
2022-08-17T06:52:53.252Z,12.77
2022-08-17T06:55:56.620Z,12.40
2022-08-17T06:58:45.823Z,11.20
2022-08-17T07:01:39.049Z,11.15
2022-08-17T07:04:34.023Z,11.15
2022-08-17T07:07:43.960Z,10.90
2022-08-17T07:10:44.647Z,11.73
2022-08-17T07:14:18.161Z,11.75
2022-08-17T07:17:11.288Z,10.98
2022-08-17T07:20:08.958Z,12.10
2022-08-17T07:23:25.628Z,11.07
2022-08-17T07:26:15.956Z,11.45
2022-08-17T07:29:03.959Z,11.27
2022-08-17T07:31:53.883Z,10.70
2022-08-17T07:35:01.703Z,11.45
2022-08-17T07:37:55.712Z,11.45
2022-08-17T07:40:59.399Z,11.38
2022-08-17T07:43:52.548Z,11.23
2022-08-17T07:47:10.588Z,9.60
2022-08-17T07:50:37.600Z,9.90
2022-08-17T07:53:26.781Z,9.18
2022-08-17T07:56:34.818Z,9.57
2022-08-17T07:59:33.376Z,9.35
2022-08-17T08:02:35.469Z,9.23
2022-08-17T08:05:31.715Z,10.43
2022-08-17T08:08:45.866Z,11.10
2022-08-17T08:11:43.746Z,10.13
2022-08-17T08:14:41.088Z,10.50
2022-08-17T08:17:47.194Z,8.57
2022-08-17T08:20:53.373Z,8.20
2022-08-17T08:24:13.530Z,8.35
2022-08-17T08:27:27.642Z,8.23
2022-08-17T08:30:22.625Z,8.07
2022-08-17T08:33:10.705Z,9.07
2022-08-17T08:36:12.281Z,9.40
2022-08-17T08:39:42.715Z,8.50
2022-08-17T08:43:10.372Z,8.30
2022-08-17T08:50:01.876Z,8.15
2022-08-17T08:53:14.615Z,8.57
2022-08-17T08:56:14.978Z,9.05
2022-08-17T08:59:23.714Z,8.23
2022-08-17T09:02:39.024Z,8.55
2022-08-17T09:06:33.306Z,8.82
2022-08-17T09:09:21.009Z,9.23
2022-08-17T09:12:17.450Z,9.20
2022-08-17T09:15:14.313Z,9.50
2022-08-17T09:19:01.333Z,9.13
2022-08-17T09:21:54.563Z,8.70
2022-08-17T09:25:14.613Z,8.52
2022-08-17T09:28:19.499Z,9.15
2022-08-17T09:31:11.444Z,8.60
2022-08-17T09:34:11.444Z,9.02
2022-08-17T09:37:20.427Z,8.75
2022-08-17T09:40:29.109Z,8.85
2022-08-17T09:43:45.621Z,8.77
2022-08-17T09:46:45.758Z,9.23
2022-08-17T09:50:01.357Z,9.15
2022-08-17T09:52:51.415Z,8.82
2022-08-17T09:56:06.868Z,8.45
2022-08-17T09:59:25.457Z,8.50
2022-08-17T10:02:54.450Z,8.35
2022-08-17T10:05:57.547Z,8.90
2022-08-17T10:08:52.535Z,8.98
2022-08-17T10:12:13.310Z,9.23
2022-08-17T10:15:44.544Z,9.05
2022-08-17T10:19:09.458Z,8.85
2022-08-17T10:22:34.570Z,8.95
2022-08-17T10:26:00.532Z,8.85
2022-08-17T10:29:02.871Z,9.20
2022-08-17T10:32:03.548Z,9.40
2022-08-17T10:35:14.719Z,8.75
2022-08-17T10:38:25.965Z,9.55
2022-08-17T10:41:18.479Z,8.82
2022-08-17T10:44:38.120Z,8.68
2022-08-17T10:48:06.080Z,8.48
2022-08-17T10:50:58.130Z,8.15
2022-08-17T10:53:49.221Z,8.98
2022-08-17T10:56:43.406Z,8.05
2022-08-17T10:59:37.299Z,8.80
2022-08-17T11:02:31.495Z,8.07
2022-08-17T11:05:59.281Z,8.10
2022-08-17T11:09:02.028Z,8.43
2022-08-17T11:12:00.174Z,8.50
2022-08-17T11:15:12.073Z,8.50
2022-08-17T11:18:11.329Z,8.48
2022-08-17T11:21:12.635Z,8.55
2022-08-17T11:24:12.118Z,8.25
2022-08-17T11:27:17.165Z,8.38
2022-08-17T11:30:31.130Z,7.20
2022-08-17T11:33:29.687Z,8.85
2022-08-17T11:36:35.402Z,8.15
2022-08-17T11:39:28.236Z,7.80
2022-08-17T11:42:25.742Z,7.30
2022-08-17T11:45:37.081Z,8.00
2022-08-17T11:49:01.034Z,7.47
2022-08-17T11:52:01.159Z,7.28
2022-08-17T11:54:48.976Z,7.97
2022-08-17T11:57:40.630Z,8.00
2022-08-17T12:00:47.319Z,7.78
2022-08-17T12:03:34.126Z,6.35
2022-08-17T12:06:31.065Z,7.43
2022-08-17T12:09:25.011Z,6.60
2022-08-17T12:12:15.038Z,5.60
2022-08-17T12:15:10.524Z,5.88
2022-08-17T12:17:58.418Z,5.35
2022-08-17T12:20:45.601Z,5.45
2022-08-17T12:23:47.871Z,5.75
2022-08-17T12:26:36.974Z,6.07
2022-08-17T12:29:35.824Z,5.70
2022-08-17T12:32:30.927Z,6.05
2022-08-17T12:35:49.850Z,6.50
2022-08-17T12:38:41.903Z,5.65
2022-08-17T12:41:36.553Z,5.65
2022-08-17T12:44:30.066Z,5.75
2022-08-17T12:47:22.747Z,5.10
2022-08-17T12:50:28.711Z,5.20
2022-08-17T12:53:25.985Z,5.68
2022-08-17T12:56:13.891Z,6.03
2022-08-17T12:59:02.352Z,5.60
2022-08-17T13:01:50.530Z,5.05
2022-08-17T13:04:41.056Z,6.00
2022-08-17T13:07:30.906Z,5.10
2022-08-17T13:10:32.442Z,5.10
2022-08-17T13:13:26.767Z,4.68
2022-08-17T13:16:14.503Z,5.00
2022-08-17T13:19:15.061Z,5.10
2022-08-17T13:22:02.135Z,5.20
2022-08-17T13:25:04.099Z,4.65
2022-08-17T13:27:58.361Z,5.53
2022-08-17T13:30:45.903Z,5.57
2022-08-17T13:33:43.383Z,5.47
2022-08-17T13:36:33.985Z,5.43
2022-08-17T13:39:25.504Z,5.05
2022-08-17T13:42:52.731Z,5.22
2022-08-17T13:45:50.765Z,5.35
2022-08-17T13:48:37.917Z,5.15
2022-08-17T13:51:29.053Z,5.22
2022-08-17T13:54:34.935Z,5.05
2022-08-17T13:57:28.415Z,5.30
2022-08-17T14:00:30.941Z,5.32
2022-08-17T14:03:20.101Z,5.43
2022-08-17T14:06:07.800Z,5.57
2022-08-17T14:08:57.127Z,5.18
2022-08-17T14:11:47.796Z,5.78
2022-08-17T14:14:36.616Z,5.43
2022-08-17T14:17:24.356Z,5.97
2022-08-17T14:20:12.965Z,5.85
2022-08-17T14:22:59.811Z,5.30
2022-08-17T14:25:47.946Z,5.22
2022-08-17T14:28:36.392Z,6.25
2022-08-17T14:31:22.987Z,5.97
2022-08-17T14:34:10.663Z,5.72
2022-08-17T14:36:58.977Z,5.65
2022-08-17T14:39:54.886Z,5.70
2022-08-17T14:42:51.120Z,6.03
2022-08-17T14:45:37.842Z,6.32
2022-08-17T14:48:25.877Z,5.75
2022-08-17T14:51:18.806Z,5.60
2022-08-17T14:54:06.798Z,5.70
2022-08-17T14:57:15.567Z,5.65
2022-08-17T15:00:04.799Z,6.57
2022-08-17T15:02:54.723Z,6.30
2022-08-17T15:05:41.617Z,6.25
2022-08-17T15:08:28.811Z,6.47
2022-08-17T15:11:15.882Z,5.82
2022-08-17T15:14:03.824Z,6.40
2022-08-17T15:16:57.053Z,5.53
2022-08-17T15:20:06.075Z,5.93
2022-08-17T15:25:51.117Z,5.88
2022-08-17T15:28:43.051Z,5.97
2022-08-17T15:31:47.694Z,6.10
2022-08-17T15:34:40.532Z,6.47
2022-08-17T15:37:35.001Z,5.82
2022-08-17T15:40:27.594Z,6.13
2022-08-17T15:43:51.508Z,6.35
2022-08-17T15:47:06.299Z,6.32
2022-08-17T15:50:09.692Z,6.15
2022-08-17T15:53:01.264Z,6.45
2022-08-17T15:55:52.338Z,6.40
2022-08-17T15:58:48.760Z,6.75
2022-08-17T16:03:01.178Z,6.32
2022-08-17T16:04:57.372Z,6.18
2022-08-17T16:07:50.756Z,6.20
2022-08-17T16:10:44.695Z,6.38
2022-08-17T16:13:36.552Z,6.53
2022-08-17T16:16:27.457Z,6.45
2022-08-17T16:19:18.403Z,6.13
2022-08-17T16:22:09.990Z,6.47
2022-08-17T16:25:08.490Z,6.50
2022-08-17T16:28:01.264Z,6.05
2022-08-17T16:30:47.682Z,6.35
2022-08-17T16:33:37.310Z,6.47
2022-08-17T16:36:55.110Z,6.63
2022-08-17T16:39:57.638Z,6.45
2022-08-17T16:42:49.564Z,6.68
2022-08-17T16:45:43.172Z,6.47
2022-08-17T16:48:30.452Z,6.95
2022-08-17T16:51:24.583Z,6.88
2022-08-17T16:54:15.928Z,6.03
2022-08-17T16:57:05.656Z,6.32
2022-08-17T16:59:53.634Z,6.35
2022-08-17T17:02:48.069Z,6.30
2022-08-17T17:05:46.170Z,5.95
2022-08-17T17:09:05.669Z,6.05
2022-08-17T17:12:03.870Z,6.03
2022-08-17T17:14:59.294Z,6.47
2022-08-17T17:17:49.826Z,6.47
2022-08-17T17:21:13.927Z,5.90
2022-08-17T17:24:07.481Z,5.80
2022-08-17T17:27:13.409Z,6.18
2022-08-17T17:30:41.662Z,5.80
2022-08-17T17:36:51.578Z,6.07
2022-08-17T17:39:50.273Z,5.90
2022-08-17T17:42:40.458Z,5.78
2022-08-17T17:45:40.590Z,5.82
2022-08-17T17:48:30.239Z,6.78
2022-08-17T17:51:35.169Z,6.07
2022-08-17T17:55:04.439Z,6.13
2022-08-17T17:58:22.064Z,6.30
2022-08-17T18:01:26.120Z,6.03
2022-08-17T18:04:21.454Z,6.03
2022-08-17T18:07:27.256Z,6.57
2022-08-17T18:10:30.317Z,7.25
2022-08-17T18:13:36.409Z,7.63
2022-08-17T18:16:23.210Z,7.20
2022-08-17T18:19:21.229Z,8.02
2022-08-17T18:22:23.306Z,6.82
2022-08-17T18:25:43.991Z,7.60
2022-08-17T18:28:40.315Z,7.60
2022-08-17T18:31:27.071Z,8.35
2022-08-17T18:37:40.257Z,8.52
2022-08-17T18:40:36.192Z,7.93
2022-08-17T18:43:44.210Z,9.98
2022-08-17T18:46:43.844Z,11.57
2022-08-17T18:49:30.365Z,10.18
2022-08-17T18:52:33.751Z,10.07
2022-08-17T18:55:30.312Z,9.70
2022-08-17T18:58:20.501Z,22.85
2022-08-17T19:03:52.801Z,21.50
2022-08-17T19:06:39.795Z,12.75
2022-08-17T19:09:47.517Z,9.95
2022-08-17T19:12:47.614Z,17.83
2022-08-17T19:15:38.691Z,14.43
2022-08-17T19:18:30.559Z,16.38
2022-08-17T19:21:26.317Z,22.83
2022-08-17T19:24:20.288Z,20.60
2022-08-17T19:27:34.927Z,17.55
2022-08-17T19:30:53.093Z,12.98
2022-08-17T19:33:52.281Z,12.35
2022-08-17T19:36:57.562Z,12.85
2022-08-17T19:40:08.733Z,21.05
2022-08-17T19:46:08.745Z,18.52
2022-08-17T19:49:22.414Z,20.15
2022-08-17T19:52:37.725Z,18.48
2022-08-17T19:55:44.180Z,15.73
2022-08-17T19:58:52.058Z,18.55
2022-08-17T20:01:45.484Z,19.33
2022-08-17T20:04:42.400Z,20.23
2022-08-17T20:07:46.556Z,18.38
2022-08-17T20:10:47.369Z,16.10
2022-08-17T20:14:00.254Z,19.25
2022-08-17T20:16:47.487Z,18.23
2022-08-17T20:19:52.363Z,15.07
2022-08-17T20:22:59.589Z,13.10
2022-08-17T20:26:10.319Z,12.57
2022-08-17T20:29:06.134Z,11.93
2022-08-17T20:31:55.406Z,12.00
2022-08-17T20:34:45.529Z,12.38
2022-08-17T20:37:34.324Z,12.52
2022-08-17T20:40:26.103Z,12.38
2022-08-17T20:43:34.258Z,12.48
2022-08-17T20:46:41.858Z,11.52
2022-08-17T20:49:57.818Z,13.43
2022-08-17T20:52:54.191Z,13.25
2022-08-17T20:55:52.294Z,12.80
2022-08-17T20:58:46.600Z,13.18
2022-08-17T21:01:39.886Z,13.02
2022-08-17T21:05:07.317Z,17.88
2022-08-17T21:08:00.567Z,13.00
2022-08-17T21:10:47.472Z,14.02
2022-08-17T21:13:36.651Z,14.57
2022-08-17T21:16:27.110Z,14.00
2022-08-17T21:22:21.272Z,30.05
2022-08-17T21:25:26.391Z,21.90
2022-08-17T21:28:33.979Z,16.45
2022-08-17T21:31:40.273Z,16.90
2022-08-17T21:34:29.118Z,17.83
2022-08-17T21:37:33.374Z,16.67
2022-08-17T21:40:27.456Z,16.70
2022-08-17T21:43:27.109Z,16.70
2022-08-17T21:46:29.505Z,15.23
2022-08-17T21:49:19.383Z,14.93
2022-08-17T21:52:07.762Z,16.77
2022-08-17T21:54:57.744Z,17.38
2022-08-17T21:57:53.176Z,15.60
2022-08-17T22:01:22.811Z,19.02
2022-08-17T22:04:15.251Z,18.30
2022-08-17T22:07:09.950Z,18.88
2022-08-17T22:09:56.213Z,17.08
2022-08-17T22:13:05.265Z,17.08
2022-08-17T22:16:29.067Z,16.98
2022-08-17T22:19:15.930Z,16.48
2022-08-17T22:22:05.064Z,14.90
2022-08-17T22:24:56.845Z,19.60
2022-08-17T22:28:11.016Z,19.08
2022-08-17T22:31:02.416Z,19.45
2022-08-17T22:34:09.968Z,20.02
2022-08-17T22:37:27.511Z,18.23
2022-08-17T22:40:26.157Z,18.98
2022-08-17T22:43:13.074Z,18.90
2022-08-17T22:46:00.265Z,18.38
2022-08-17T22:48:50.271Z,18.52
2022-08-17T22:51:43.061Z,18.77
2022-08-17T22:54:48.119Z,18.20
2022-08-17T22:58:07.944Z,19.58
2022-08-17T23:00:54.060Z,19.73
2022-08-17T23:03:54.170Z,19.67
2022-08-17T23:06:44.027Z,19.02
2022-08-17T23:09:30.939Z,19.75
2022-08-17T23:12:23.920Z,19.67
2022-08-17T23:15:14.846Z,21.33
2022-08-17T23:18:04.928Z,20.23
2022-08-17T23:20:51.922Z,21.25
2022-08-17T23:23:39.314Z,21.63
2022-08-17T23:26:27.868Z,24.27
2022-08-17T23:29:14.878Z,21.23
2022-08-17T23:32:04.899Z,19.50
2022-08-17T23:34:51.143Z,20.23
2022-08-17T23:37:38.219Z,20.85
2022-08-17T23:40:24.881Z,19.65
2022-08-17T23:43:23.881Z,23.17
2022-08-17T23:46:11.886Z,24.15
2022-08-17T23:48:59.790Z,25.38
2022-08-17T23:51:46.835Z,24.13
2022-08-17T23:54:38.955Z,22.67
2022-08-17T23:57:33.842Z,19.60
